createdAt,value
2022-08-27T00:03:26.376Z,19.78
2022-08-27T00:08:31.432Z,19.74
2022-08-27T00:13:35.879Z,19.70
2022-08-27T00:18:41.224Z,19.65
2022-08-27T00:23:44.849Z,19.60
2022-08-27T00:28:48.542Z,19.57
2022-08-27T00:33:52.719Z,19.55
2022-08-27T00:38:56.079Z,19.50
2022-08-27T00:44:02.285Z,19.45
2022-08-27T00:49:20.522Z,19.39
2022-08-27T00:54:26.769Z,19.32
2022-08-27T00:59:33.074Z,19.26
2022-08-27T01:04:39.710Z,19.18
2022-08-27T01:09:46.461Z,19.10
2022-08-27T01:14:53.574Z,19.08
2022-08-27T01:20:00.817Z,19.05
2022-08-27T01:25:14.087Z,19.02
2022-08-27T01:30:20.754Z,18.99
2022-08-27T01:35:25.839Z,18.94
2022-08-27T01:40:29.241Z,18.94
2022-08-27T01:45:37.304Z,18.93
2022-08-27T01:50:41.849Z,18.88
2022-08-27T01:55:48.200Z,18.85
2022-08-27T02:00:56.474Z,18.78
2022-08-27T02:06:09.495Z,18.71
2022-08-27T02:11:12.810Z,18.66
2022-08-27T02:16:16.651Z,18.65
2022-08-27T02:21:20.776Z,18.69
2022-08-27T02:26:24.199Z,18.62
2022-08-27T02:31:28.244Z,18.61
2022-08-27T02:36:31.629Z,18.59
2022-08-27T02:41:36.270Z,18.56
2022-08-27T02:46:39.911Z,18.52
2022-08-27T02:51:43.173Z,18.53
2022-08-27T02:56:46.697Z,18.51
2022-08-27T03:01:50.759Z,18.44
2022-08-27T03:06:54.985Z,18.40
2022-08-27T03:11:58.739Z,18.34
2022-08-27T03:17:21.957Z,18.32
2022-08-27T03:22:25.985Z,18.29
2022-08-27T03:27:29.539Z,18.28
2022-08-27T03:32:33.425Z,18.27
2022-08-27T03:37:36.861Z,18.23
2022-08-27T03:42:40.839Z,18.23
2022-08-27T03:47:44.227Z,18.24
2022-08-27T03:52:47.684Z,18.25
2022-08-27T03:57:51.339Z,18.27
2022-08-27T04:02:56.214Z,18.28
2022-08-27T04:07:59.860Z,18.31
2022-08-27T04:13:03.389Z,18.35
2022-08-27T04:18:06.896Z,18.42
2022-08-27T04:23:10.761Z,18.50
2022-08-27T04:28:15.179Z,18.62
2022-08-27T04:33:18.591Z,18.74
2022-08-27T04:38:22.208Z,18.82
2022-08-27T04:43:28.641Z,18.95
2022-08-27T04:48:32.490Z,19.13
2022-08-27T04:53:36.440Z,19.24
2022-08-27T04:58:39.773Z,19.41
2022-08-27T05:03:43.345Z,19.57
2022-08-27T05:08:48.082Z,19.75
2022-08-27T05:13:51.517Z,19.95
2022-08-27T05:18:54.926Z,20.12
2022-08-27T05:24:00.919Z,20.29
2022-08-27T05:29:06.605Z,20.46
2022-08-27T05:34:18.892Z,20.64
2022-08-27T05:39:29.675Z,20.87
2022-08-27T05:44:41.119Z,21.03
2022-08-27T05:49:45.768Z,21.23
2022-08-27T05:54:48.958Z,21.42
2022-08-27T06:00:15.787Z,21.63
2022-08-27T06:05:20.335Z,21.75
2022-08-27T06:10:23.849Z,21.95
2022-08-27T06:15:27.521Z,22.20
2022-08-27T06:20:31.013Z,22.31
2022-08-27T06:25:34.243Z,22.52
2022-08-27T06:30:37.634Z,22.75
2022-08-27T06:35:41.481Z,22.96
2022-08-27T06:40:44.793Z,23.07
2022-08-27T06:45:48.432Z,23.14
2022-08-27T06:50:51.895Z,23.26
2022-08-27T06:55:55.258Z,23.41
2022-08-27T07:01:00.060Z,23.56
2022-08-27T07:06:06.007Z,23.66
2022-08-27T07:11:12.110Z,23.88
2022-08-27T07:16:19.467Z,24.02
2022-08-27T07:21:27.770Z,24.17
2022-08-27T07:26:33.431Z,24.38
2022-08-27T07:31:37.130Z,24.53
2022-08-27T07:36:41.449Z,24.74
2022-08-27T07:42:03.552Z,24.92
2022-08-27T07:47:07.325Z,25.08
2022-08-27T07:52:10.853Z,25.35
2022-08-27T07:57:14.284Z,25.47
2022-08-27T08:02:17.785Z,25.66
2022-08-27T08:07:22.291Z,25.84
2022-08-27T08:12:26.518Z,26.06
2022-08-27T08:17:30.155Z,26.32
2022-08-27T08:22:33.532Z,26.55
2022-08-27T08:27:37.294Z,26.73
2022-08-27T08:32:41.049Z,26.95
2022-08-27T08:37:45.439Z,27.15
2022-08-27T08:42:55.215Z,27.18
2022-08-27T08:48:26.823Z,27.24
2022-08-27T08:53:45.699Z,27.46
2022-08-27T08:59:08.773Z,27.72
2022-08-27T09:04:13.030Z,27.87
2022-08-27T09:09:58.490Z,27.96
2022-08-27T09:15:19.225Z,28.16
2022-08-27T09:20:25.465Z,28.39
2022-08-27T09:25:39.776Z,28.38
2022-08-27T09:30:44.190Z,28.44
2022-08-27T09:35:48.124Z,28.59
2022-08-27T09:40:52.711Z,28.79
2022-08-27T09:45:59.692Z,28.96
2022-08-27T09:51:40.426Z,29.10
2022-08-27T09:56:50.532Z,29.24
2022-08-27T10:02:04.293Z,29.43
2022-08-27T10:07:26.678Z,29.67
2022-08-27T10:12:51.615Z,29.87
2022-08-27T10:18:12.761Z,29.94
2022-08-27T10:23:23.067Z,29.94
2022-08-27T10:28:37.042Z,30.07
2022-08-27T10:33:59.506Z,30.22
2022-08-27T10:39:04.509Z,30.39
2022-08-27T10:44:10.590Z,30.60
2022-08-27T10:49:21.490Z,30.63
2022-08-27T10:54:54.703Z,30.64
2022-08-27T11:00:29.894Z,30.69
2022-08-27T11:05:43.903Z,30.70
2022-08-27T11:10:57.145Z,30.89
2022-08-27T11:16:07.605Z,31.09
2022-08-27T11:21:20.187Z,31.22
2022-08-27T11:26:23.400Z,31.27
2022-08-27T11:31:41.271Z,31.34
2022-08-27T11:37:09.236Z,31.49
2022-08-27T11:42:43.574Z,31.67
2022-08-27T11:47:58.970Z,31.79
2022-08-27T11:53:06.383Z,32.00
2022-08-27T11:58:11.624Z,32.32
2022-08-27T12:03:27.372Z,32.54
2022-08-27T12:08:35.072Z,32.51
2022-08-27T12:14:15.838Z,32.52
2022-08-27T12:19:32.971Z,32.57
2022-08-27T12:24:56.353Z,32.73
2022-08-27T12:30:07.593Z,32.88
2022-08-27T12:35:28.991Z,32.87
2022-08-27T12:40:50.318Z,33.39
2022-08-27T12:46:14.454Z,33.78
2022-08-27T12:51:36.472Z,33.89
2022-08-27T12:56:54.728Z,34.14
2022-08-27T13:02:12.115Z,34.42
2022-08-27T13:07:32.973Z,34.67
2022-08-27T13:12:43.573Z,34.94
2022-08-27T13:17:47.977Z,35.34
2022-08-27T13:22:53.466Z,35.47
2022-08-27T13:28:08.322Z,35.17
2022-08-27T13:33:20.062Z,35.17
2022-08-27T13:38:26.343Z,35.06
2022-08-27T13:43:38.050Z,34.65
2022-08-27T13:48:42.694Z,34.58
2022-08-27T13:54:06.897Z,34.84
2022-08-27T13:59:15.020Z,35.23
2022-08-27T14:04:24.733Z,35.45
2022-08-27T14:09:30.344Z,35.69
2022-08-27T14:14:39.554Z,36.16
2022-08-27T14:19:43.419Z,38.36
2022-08-27T14:24:47.136Z,42.07
2022-08-27T14:29:50.512Z,45.60
2022-08-27T14:34:53.861Z,48.66
2022-08-27T14:39:57.332Z,51.08
2022-08-27T14:45:01.406Z,53.46
2022-08-27T14:50:09.684Z,55.65
2022-08-27T14:55:14.787Z,57.88
2022-08-27T15:00:18.616Z,59.88
2022-08-27T15:05:24.754Z,61.55
2022-08-27T15:10:28.508Z,63.12
2022-08-27T15:15:31.818Z,64.34
2022-08-27T15:20:36.359Z,65.12
2022-08-27T15:25:41.000Z,65.49
2022-08-27T15:30:44.313Z,65.14
2022-08-27T15:35:47.623Z,64.91
2022-08-27T15:40:51.241Z,64.69
2022-08-27T15:45:54.581Z,64.21
2022-08-27T15:51:03.084Z,63.20
2022-08-27T15:56:08.302Z,62.15
2022-08-27T16:01:19.668Z,61.26
2022-08-27T16:06:23.559Z,60.15
2022-08-27T16:11:26.822Z,58.95
2022-08-27T16:16:32.699Z,57.72
2022-08-27T16:21:37.074Z,54.32
2022-08-27T16:26:40.387Z,52.76
2022-08-27T16:31:43.815Z,53.05
2022-08-27T16:36:47.316Z,52.95
2022-08-27T16:41:50.728Z,52.36
2022-08-27T16:46:54.346Z,51.60
2022-08-27T16:51:57.658Z,50.51
2022-08-27T16:57:01.377Z,49.02
2022-08-27T17:02:05.495Z,46.97
2022-08-27T17:07:08.921Z,44.75
2022-08-27T17:12:15.632Z,43.20
2022-08-27T17:17:19.642Z,41.86
2022-08-27T17:22:22.950Z,40.29
2022-08-27T17:27:26.363Z,38.52
2022-08-27T17:32:33.157Z,36.43
2022-08-27T17:37:36.466Z,34.31
2022-08-27T17:42:40.905Z,32.79
2022-08-27T17:47:44.420Z,31.76
2022-08-27T17:52:47.836Z,30.75
2022-08-27T17:57:51.656Z,29.91
2022-08-27T18:02:55.275Z,29.15
2022-08-27T18:07:58.587Z,28.46
2022-08-27T18:13:01.999Z,27.86
2022-08-27T18:18:05.676Z,27.32
2022-08-27T18:23:10.464Z,26.80
2022-08-27T18:28:17.360Z,26.34
2022-08-27T18:33:21.444Z,25.89
2022-08-27T18:38:24.905Z,25.48
2022-08-27T18:43:34.832Z,25.07
2022-08-27T18:48:38.388Z,24.71
2022-08-27T18:53:43.879Z,24.44
2022-08-27T18:58:48.999Z,24.19
2022-08-27T19:03:55.104Z,23.95
2022-08-27T19:08:58.935Z,23.73
2022-08-27T19:14:02.229Z,23.57
2022-08-27T19:19:06.237Z,23.36
2022-08-27T19:24:10.575Z,23.21
2022-08-27T19:29:15.250Z,23.07
2022-08-27T19:34:21.700Z,22.91
2022-08-27T19:39:25.462Z,22.75
2022-08-27T19:44:28.648Z,22.68
2022-08-27T19:49:31.993Z,22.60
2022-08-27T19:54:43.143Z,22.49
2022-08-27T19:59:55.252Z,22.33
2022-08-27T20:05:17.016Z,22.18
2022-08-27T20:10:25.853Z,21.99
2022-08-27T20:15:35.803Z,21.78
2022-08-27T20:20:41.086Z,21.60
2022-08-27T20:25:44.990Z,21.43
2022-08-27T20:30:49.375Z,21.27
2022-08-27T20:35:53.552Z,21.12
2022-08-27T20:40:56.970Z,21.00
2022-08-27T20:46:00.558Z,20.94
2022-08-27T20:51:04.201Z,20.87
2022-08-27T20:56:08.125Z,20.83
2022-08-27T21:01:12.538Z,20.78
2022-08-27T21:06:16.286Z,20.73
2022-08-27T21:11:19.701Z,20.67
2022-08-27T21:16:23.577Z,20.62
2022-08-27T21:21:28.167Z,20.55
2022-08-27T21:26:31.576Z,20.45
2022-08-27T21:31:35.683Z,20.37
2022-08-27T21:36:39.435Z,20.25
2022-08-27T21:41:42.842Z,20.13
2022-08-27T21:46:46.205Z,20.03
2022-08-27T21:51:49.772Z,19.94
2022-08-27T21:56:53.287Z,19.85
2022-08-27T22:02:00.964Z,19.78
2022-08-27T22:07:05.130Z,19.71
2022-08-27T22:12:08.647Z,19.64
2022-08-27T22:17:16.052Z,19.55
2022-08-27T22:22:19.669Z,19.48
2022-08-27T22:27:22.984Z,19.41
2022-08-27T22:32:26.495Z,19.34
2022-08-27T22:37:30.524Z,19.25
2022-08-27T22:42:33.842Z,19.19
2022-08-27T22:47:37.249Z,19.12
2022-08-27T22:52:42.605Z,19.03
2022-08-27T22:57:47.866Z,19.02
2022-08-27T23:02:51.481Z,18.97
2022-08-27T23:07:55.510Z,18.93
2022-08-27T23:12:59.025Z,18.86
2022-08-27T23:18:02.744Z,18.84
2022-08-27T23:23:08.323Z,18.82
2022-08-27T23:28:15.095Z,18.81
2022-08-27T23:33:20.461Z,18.82
2022-08-27T23:38:23.770Z,18.83
2022-08-27T23:43:27.392Z,18.83
2022-08-27T23:48:30.905Z,18.78
2022-08-27T23:53:34.421Z,18.72
2022-08-27T23:58:37.834Z,18.65
